Time;durP1;ratioP1;P1;durP2;ratioP2;P2;SDS_P1;SDS_P2;PMS_P1;PMS_P2;Temp;Humidity;BMP_temperature;BMP_pressure;BME280_temperature;BME280_humidity;BME280_pressure;Samples;Min_cycle;Max_cycle;Signal;HPM_P1;HPM_P2
2022/08/15 00:00:49;;;;;;;5.40;4.90;;;21.40;99.90;;;;;;7374804;19;20336;-76
2022/08/15 00:03:32;;;;;;;5.90;5.18;;;21.40;99.90;;;;;;7376762;19;20399;-76
2022/08/15 00:06:02;;;;;;;7.37;6.00;;;21.30;99.90;;;;;;7269933;19;2019937;-76
2022/08/15 00:08:28;;;;;;;6.00;5.40;;;21.30;99.90;;;;;;7375429;19;20324;-77
2022/08/15 00:10:59;;;;;;;5.70;5.20;;;21.20;99.90;;;;;;7375898;19;20352;-77
2022/08/15 00:13:27;;;;;;;5.83;5.23;;;21.20;99.90;;;;;;7375774;19;20460;-77
2022/08/15 00:15:54;;;;;;;6.10;5.28;;;21.30;99.90;;;;;;7371446;19;21103;-76
2022/08/15 00:18:20;;;;;;;6.80;5.78;;;21.20;99.90;;;;;;7376478;19;20408;-77
2022/08/15 00:20:46;;;;;;;6.30;5.70;;;21.30;99.90;;;;;;7376581;19;20319;-76
2022/08/15 00:23:13;;;;;;;5.83;5.23;;;21.20;99.90;;;;;;7375280;19;20986;-76
2022/08/15 00:25:39;;;;;;;6.40;5.65;;;21.10;99.90;;;;;;7371952;19;20324;-76
2022/08/15 00:28:05;;;;;;;5.18;4.68;;;21.10;99.90;;;;;;7375707;19;20352;-76
2022/08/15 00:30:33;;;;;;;5.80;5.20;;;21.10;99.90;;;;;;7374799;19;20388;-76
2022/08/15 00:32:58;;;;;;;5.50;4.97;;;21.20;99.90;;;;;;7375760;19;20356;-76
2022/08/15 00:35:37;;;;;;;5.70;5.20;;;21.20;99.90;;;;;;7370184;19;20355;-76
2022/08/15 00:38:11;;;;;;;5.50;4.88;;;21.20;99.90;;;;;;7373209;19;20991;-76
2022/08/15 00:43:23;;;;;;;5.75;5.22;;;21.20;99.90;;;;;;7271805;19;2004222;-77
2022/08/15 00:45:49;;;;;;;6.00;5.30;;;21.30;99.90;;;;;;7370863;19;20348;-76
2022/08/15 00:50:59;;;;;;;6.43;5.82;;;21.30;99.90;;;;;;7271728;19;2004563;-77
2022/08/15 00:53:25;;;;;;;9.40;5.70;;;21.30;99.90;;;;;;7374294;19;20362;-76
2022/08/15 00:55:50;;;;;;;6.63;5.82;;;21.30;99.90;;;;;;7370890;19;21216;-76
2022/08/15 00:58:16;;;;;;;7.03;6.27;;;21.30;99.90;;;;;;7374070;19;20868;-76
2022/08/15 01:00:44;;;;;;;6.20;5.70;;;21.30;99.90;;;;;;7377109;19;20612;-76
2022/08/15 01:03:12;;;;;;;6.32;5.72;;;21.30;99.90;;;;;;7381765;19;20312;-76
2022/08/15 01:05:39;;;;;;;6.53;5.93;;;21.30;99.90;;;;;;7378144;19;20313;-76
2022/08/15 01:08:04;;;;;;;6.45;5.85;;;21.30;99.90;;;;;;7381202;19;20353;-76
2022/08/15 01:10:30;;;;;;;6.30;5.70;;;21.30;99.90;;;;;;7379969;19;20317;-76
2022/08/15 01:12:56;;;;;;;6.50;5.90;;;21.30;99.90;;;;;;7381546;19;20356;-76
2022/08/15 01:15:22;;;;;;;6.68;5.97;;;21.30;99.90;;;;;;7377894;19;21322;-76
2022/08/15 01:17:47;;;;;;;7.43;6.70;;;21.20;99.90;;;;;;7380553;19;20336;-76
2022/08/15 01:20:19;;;;;;;6.00;5.50;;;21.20;99.90;;;;;;7380832;19;20399;-76
2022/08/15 01:22:53;;;;;;;6.30;5.70;;;21.20;99.90;;;;;;7380860;19;20761;-76
2022/08/15 01:25:39;;;;;;;7.03;6.17;;;21.20;99.90;;;;;;7274719;19;2004363;-76
2022/08/15 01:28:05;;;;;;;6.47;5.82;;;21.20;99.90;;;;;;7380510;19;20341;-76
2022/08/15 01:30:36;;;;;;;6.77;6.07;;;21.20;99.90;;;;;;7379634;19;20312;-75
2022/08/15 01:33:02;;;;;;;8.15;6.40;;;21.10;99.90;;;;;;7382134;19;20907;-76
2022/08/15 01:35:28;;;;;;;6.50;5.90;;;21.10;99.90;;;;;;7376269;19;20508;-76
2022/08/15 01:37:54;;;;;;;6.70;5.82;;;21.10;99.90;;;;;;7379398;19;20355;-76
2022/08/15 01:40:26;;;;;;;6.40;5.80;;;21.10;99.90;;;;;;7379477;19;20320;-76
2022/08/15 01:42:52;;;;;;;7.25;6.55;;;21.00;99.90;;;;;;7380960;19;20373;-76
2022/08/15 01:45:20;;;;;;;7.68;5.85;;;21.00;99.90;;;;;;7375595;19;20354;-76
2022/08/15 01:47:58;;;;;;;6.25;5.65;;;20.90;99.90;;;;;;7380636;19;20627;-76
2022/08/15 01:50:40;;;;;;;6.68;5.97;;;20.90;99.90;;;;;;7380188;19;20320;-76
2022/08/15 01:53:25;;;;;;;6.72;5.88;;;20.90;99.90;;;;;;7380262;19;20885;-76
2022/08/15 01:56:05;;;;;;;6.45;5.85;;;20.80;99.90;;;;;;7273885;19;2004332;-76
2022/08/15 01:58:39;;;;;;;6.22;5.65;;;20.80;99.90;;;;;;7379758;19;20320;-76
2022/08/15 02:01:16;;;;;;;6.50;5.90;;;20.80;99.90;;;;;;7379552;19;20927;-76
2022/08/15 02:03:43;;;;;;;6.50;5.90;;;20.80;99.90;;;;;;7380736;19;20424;-76
2022/08/15 02:06:15;;;;;;;5.63;5.13;;;20.70;99.90;;;;;;7375828;19;20305;-76
2022/08/15 02:08:43;;;;;;;6.85;6.15;;;20.70;99.90;;;;;;7380460;19;21154;-76
2022/08/15 02:11:14;;;;;;;6.88;6.28;;;20.70;99.90;;;;;;7377424;19;20324;-77
2022/08/15 02:13:44;;;;;;;6.68;6.07;;;20.70;99.90;;;;;;7378381;19;20312;-76
2022/08/15 02:16:09;;;;;;;7.60;6.70;;;20.60;99.90;;;;;;7376440;19;20309;-76
2022/08/15 02:18:35;;;;;;;6.45;5.88;;;20.60;99.90;;;;;;7378869;19;20357;-76
2022/08/15 02:21:00;;;;;;;6.90;6.20;;;20.60;99.90;;;;;;7379949;19;20363;-76
2022/08/15 02:23:27;;;;;;;7.35;6.47;;;20.50;99.90;;;;;;7379696;19;20420;-76
2022/08/15 02:25:54;;;;;;;6.50;5.90;;;20.50;99.90;;;;;;7374113;19;20420;-76
2022/08/15 02:28:20;;;;;;;6.15;5.55;;;20.50;99.90;;;;;;7378612;19;20357;-76
2022/08/15 02:30:46;;;;;;;6.90;5.78;;;20.50;99.90;;;;;;7379221;19;20370;-76
2022/08/15 02:33:11;;;;;;;6.30;5.70;;;20.50;99.90;;;;;;7379994;19;20849;-76
2022/08/15 02:35:38;;;;;;;6.50;5.90;;;20.50;99.90;;;;;;7377226;19;20403;-76
2022/08/15 02:38:06;;;;;;;6.95;5.78;;;20.40;99.90;;;;;;7377601;19;20844;-76
2022/08/15 02:40:33;;;;;;;6.23;5.63;;;20.40;99.90;;;;;;7379995;19;20325;-76
2022/08/15 02:43:03;;;;;;;6.93;6.23;;;20.30;99.90;;;;;;7379826;19;20340;-77
2022/08/15 02:45:31;;;;;;;6.73;6.13;;;20.20;99.90;;;;;;7373784;19;20982;-76
2022/08/15 02:47:58;;;;;;;7.35;5.90;;;20.20;99.90;;;;;;7378576;19;20361;-76
2022/08/15 02:50:24;;;;;;;6.32;5.72;;;20.20;99.90;;;;;;7378730;19;20323;-77
2022/08/15 02:52:50;;;;;;;6.97;5.85;;;20.10;99.90;;;;;;7377837;19;20449;-76
2022/08/15 02:55:16;;;;;;;7.37;5.90;;;20.00;99.90;;;;;;7376932;19;20408;-76
2022/08/15 02:57:42;;;;;;;7.20;6.50;;;20.00;99.90;;;;;;7376913;19;20426;-76
2022/08/15 03:00:10;;;;;;;6.65;6.05;;;19.90;99.90;;;;;;7378672;19;20755;-76
2022/08/15 03:02:54;;;;;;;6.65;6.05;;;19.90;99.90;;;;;;7377898;19;20348;-76
2022/08/15 03:05:23;;;;;;;7.22;6.53;;;19.90;99.90;;;;;;7272070;19;2004301;-76
2022/08/15 03:07:48;;;;;;;6.87;6.20;;;19.90;99.90;;;;;;7377094;19;20349;-76
2022/08/15 03:10:14;;;;;;;6.80;6.10;;;19.90;99.90;;;;;;7378400;19;20335;-76
2022/08/15 03:13:00;;;;;;;7.10;6.38;;;19.90;99.90;;;;;;7376691;19;20305;-77
2022/08/15 03:15:39;;;;;;;6.28;5.53;;;19.80;99.90;;;;;;7272818;19;2004651;-77
2022/08/15 03:18:04;;;;;;;6.65;5.95;;;19.80;99.90;;;;;;7376905;19;20375;-76
2022/08/15 03:20:30;;;;;;;7.03;6.33;;;19.80;99.90;;;;;;7377652;19;20329;-77
2022/08/15 03:22:56;;;;;;;6.80;6.10;;;19.70;99.90;;;;;;7376354;19;20940;-76
2022/08/15 03:25:25;;;;;;;7.13;5.95;;;19.70;99.90;;;;;;7373132;19;21166;-76
2022/08/15 03:27:53;;;;;;;6.35;5.75;;;19.70;99.90;;;;;;7377501;19;20427;-75
2022/08/15 03:30:19;;;;;;;7.47;6.25;;;19.60;99.90;;;;;;7376484;19;20826;-76
2022/08/15 03:32:50;;;;;;;7.00;6.15;;;19.60;99.90;;;;;;7377632;19;21246;-76
2022/08/15 03:35:16;;;;;;;6.95;6.25;;;19.60;99.90;;;;;;7372831;19;20326;-76
2022/08/15 03:37:42;;;;;;;6.93;6.32;;;19.60;99.90;;;;;;7374786;19;20328;-76
2022/08/15 03:40:08;;;;;;;7.03;6.27;;;19.60;99.90;;;;;;7376697;19;20320;-75
2022/08/15 03:42:37;;;;;;;6.38;5.78;;;19.60;99.90;;;;;;7376366;19;20384;-76
2022/08/15 03:45:09;;;;;;;5.90;5.40;;;19.60;99.90;;;;;;7372590;19;21174;-76
2022/08/15 03:47:36;;;;;;;5.90;5.40;;;19.60;99.90;;;;;;7375520;19;21203;-75
2022/08/15 03:50:03;;;;;;;6.40;5.80;;;19.60;99.90;;;;;;7377067;19;20362;-76
2022/08/15 03:52:29;;;;;;;6.45;5.85;;;19.60;99.90;;;;;;7363126;19;20416;-75
2022/08/15 03:54:54;;;;;;;7.20;6.50;;;19.60;99.90;;;;;;7372908;19;20765;-76
2022/08/15 03:57:20;;;;;;;6.20;5.60;;;19.60;99.90;;;;;;7375587;19;20338;-76
2022/08/15 03:59:46;;;;;;;7.18;6.47;;;19.60;99.90;;;;;;7378158;19;20672;-77
2022/08/15 04:02:11;;;;;;;7.37;6.67;;;19.60;99.90;;;;;;7374359;19;20863;-76
2022/08/15 04:04:37;;;;;;;7.00;6.30;;;19.60;99.90;;;;;;7371677;19;20317;-76
2022/08/15 04:07:03;;;;;;;6.78;6.03;;;19.60;99.90;;;;;;7374141;19;20352;-75
2022/08/15 04:09:39;;;;;;;6.63;6.03;;;19.60;99.90;;;;;;7375508;19;20313;-76
2022/08/15 04:12:05;;;;;;;6.95;6.25;;;19.60;99.90;;;;;;7375858;19;20355;-75
2022/08/15 04:14:37;;;;;;;7.40;6.67;;;19.60;99.90;;;;;;7372794;19;20317;-76
2022/08/15 04:17:06;;;;;;;6.88;6.28;;;19.60;99.90;;;;;;7374147;19;20359;-76
2022/08/15 04:19:32;;;;;;;6.32;5.72;;;19.60;99.90;;;;;;7375687;19;20344;-76
2022/08/15 04:22:06;;;;;;;6.70;6.10;;;19.60;99.90;;;;;;7375679;19;20344;-76
2022/08/15 04:24:31;;;;;;;7.18;6.25;;;19.60;99.90;;;;;;7371484;19;20621;-76
2022/08/15 04:26:57;;;;;;;7.00;6.30;;;19.60;99.90;;;;;;7374471;19;20872;-76
2022/08/15 04:29:22;;;;;;;6.70;6.10;;;19.70;99.90;;;;;;7375821;19;20336;-76
2022/08/15 04:31:48;;;;;;;7.95;7.20;;;19.70;99.90;;;;;;7375514;19;20347;-76
2022/08/15 04:34:15;;;;;;;6.65;6.00;;;19.70;99.90;;;;;;7376709;19;20831;-76
2022/08/15 04:36:41;;;;;;;7.25;6.10;;;19.70;99.90;;;;;;7381281;19;20336;-76
2022/08/15 04:39:07;;;;;;;6.93;6.23;;;19.70;99.90;;;;;;7382638;19;20865;-76
2022/08/15 04:41:42;;;;;;;7.65;6.88;;;19.70;99.90;;;;;;7383977;19;20316;-75
2022/08/15 04:44:10;;;;;;;7.32;6.60;;;19.70;99.90;;;;;;7379434;19;20337;-76
2022/08/15 04:46:35;;;;;;;8.33;7.43;;;19.70;99.90;;;;;;7381452;19;21340;-76
2022/08/15 04:49:01;;;;;;;9.85;7.38;;;19.70;99.90;;;;;;7381861;19;20340;-76
2022/08/15 04:51:27;;;;;;;6.78;6.10;;;19.70;99.90;;;;;;7382157;19;20340;-76
2022/08/15 04:53:53;;;;;;;7.63;6.47;;;19.70;99.90;;;;;;7381735;19;20856;-75
2022/08/15 04:56:19;;;;;;;7.47;6.68;;;19.70;99.90;;;;;;7377557;19;20363;-76
2022/08/15 04:58:44;;;;;;;9.63;7.73;;;19.70;99.90;;;;;;7379372;19;20309;-76
2022/08/15 05:01:15;;;;;;;8.27;7.22;;;19.80;99.90;;;;;;7377663;19;20391;-76
2022/08/15 05:03:48;;;;;;;10.02;7.60;;;19.80;99.90;;;;;;7280732;19;2004415;-76
2022/08/15 05:06:14;;;;;;;7.40;6.43;;;19.80;99.90;;;;;;7378668;19;20337;-76
2022/08/15 05:08:39;;;;;;;8.07;7.28;;;19.90;99.90;;;;;;7379185;19;20416;-76
2022/08/15 05:11:13;;;;;;;8.20;7.40;;;19.90;99.90;;;;;;7381714;19;20348;-76
2022/08/15 05:13:40;;;;;;;8.05;7.25;;;19.90;99.90;;;;;;7381006;19;20675;-76
2022/08/15 05:16:07;;;;;;;7.28;6.68;;;19.90;99.90;;;;;;7378109;19;21372;-76
2022/08/15 05:18:39;;;;;;;8.38;7.50;;;19.90;99.90;;;;;;7381493;19;20679;-75
2022/08/15 05:21:06;;;;;;;9.00;8.10;;;20.00;99.90;;;;;;7371669;19;20344;-76
2022/08/15 05:23:33;;;;;;;7.90;6.88;;;20.00;99.90;;;;;;7380557;19;20424;-76
2022/08/15 05:25:59;;;;;;;7.97;7.20;;;20.00;99.90;;;;;;7377573;19;21068;-76
2022/08/15 05:28:24;;;;;;;7.28;6.47;;;20.10;99.90;;;;;;7379316;19;21012;-76
2022/08/15 05:30:52;;;;;;;7.90;7.03;;;20.10;99.90;;;;;;7374442;19;20396;-76
2022/08/15 05:33:22;;;;;;;7.35;6.70;;;20.20;99.90;;;;;;7371502;19;20321;-76
2022/08/15 05:35:54;;;;;;;8.63;7.18;;;20.30;99.90;;;;;;7267264;19;2004441;-76
2022/08/15 05:38:22;;;;;;;8.25;7.28;;;20.40;99.90;;;;;;7373153;19;20344;-76
2022/08/15 05:40:56;;;;;;;9.43;8.45;;;20.40;99.90;;;;;;7375058;19;20980;-76
2022/08/15 05:44:01;;;;;;;8.27;7.10;;;20.40;99.90;;;;;;7376701;19;20328;-75
2022/08/15 05:46:27;;;;;;;8.05;7.20;;;20.50;99.90;;;;;;7269762;19;2004513;-76
2022/08/15 05:49:00;;;;;;;8.38;7.45;;;20.50;99.90;;;;;;7378958;19;20360;-76
2022/08/15 05:51:44;;;;;;;8.23;7.30;;;20.60;99.90;;;;;;7379595;19;20319;-76
2022/08/15 05:54:26;;;;;;;7.10;6.40;;;20.70;99.90;;;;;;7379023;19;20328;-76
2022/08/15 05:57:28;;;;;;;8.13;6.85;;;20.80;99.90;;;;;;7275215;19;2004426;-76
2022/08/15 05:59:57;;;;;;;8.10;7.30;;;20.90;99.90;;;;;;7278014;19;2004395;-76
2022/08/15 06:02:34;;;;;;;7.43;6.10;;;21.00;99.90;;;;;;7378318;19;20305;-76
2022/08/15 06:05:22;;;;;;;7.57;6.22;;;21.00;99.90;;;;;;7376747;19;21036;-76
2022/08/15 06:07:49;;;;;;;9.90;8.07;;;21.20;99.90;;;;;;7277412;19;2004486;-76
2022/08/15 06:10:55;;;;;;;8.85;7.80;;;21.20;99.90;;;;;;7380636;19;20328;-76
2022/08/15 06:13:27;;;;;;;7.70;6.90;;;21.30;99.90;;;;;;7175219;19;2006014;-76
2022/08/15 06:16:16;;;;;;;8.60;7.22;;;21.30;99.90;;;;;;7375544;19;20436;-76
2022/08/15 06:18:44;;;;;;;7.85;6.85;;;21.40;99.90;;;;;;7379506;19;20400;-76
2022/08/15 06:21:40;;;;;;;7.47;6.68;;;21.50;99.90;;;;;;7378868;19;20325;-76
2022/08/15 06:24:10;;;;;;;9.57;8.10;;;21.50;99.90;;;;;;7277289;19;2004348;-76
2022/08/15 06:27:04;;;;;;;7.57;6.72;;;21.60;99.90;;;;;;7377343;19;20353;-77
2022/08/15 06:29:46;;;;;;;9.02;7.97;;;21.70;99.90;;;;;;7278866;19;2004553;-76
2022/08/15 06:32:14;;;;;;;9.77;7.32;;;21.80;99.90;;;;;;7379309;19;20332;-77
2022/08/15 06:34:56;;;;;;;8.93;8.03;;;21.90;99.90;;;;;;7376932;19;20320;-77
2022/08/15 06:37:51;;;;;;;7.45;6.65;;;22.00;99.90;;;;;;7276008;19;2004506;-77
2022/08/15 06:40:45;;;;;;;9.40;7.90;;;22.10;99.90;;;;;;7276974;19;2004418;-77
2022/08/15 06:43:11;;;;;;;9.00;7.55;;;22.10;99.90;;;;;;7378922;19;20324;-76
2022/08/15 06:45:54;;;;;;;11.07;7.13;;;22.20;99.90;;;;;;7273239;19;2004271;-77
2022/08/15 06:48:24;;;;;;;9.13;8.13;;;22.30;99.90;;;;;;7379620;19;20331;-77
2022/08/15 06:50:52;;;;;;;8.88;7.95;;;22.50;99.90;;;;;;7378777;19;20337;-76
2022/08/15 06:53:31;;;;;;;9.48;6.97;;;22.50;99.90;;;;;;7379363;19;20324;-77
2022/08/15 06:56:04;;;;;;;8.07;7.28;;;22.60;99.90;;;;;;7272376;19;2004238;-76
2022/08/15 06:58:49;;;;;;;6.53;5.93;;;22.70;99.90;;;;;;7378152;19;20399;-76
2022/08/15 07:01:29;;;;;;;11.43;8.47;;;22.90;99.90;;;;;;7377549;19;20320;-76
2022/08/15 07:04:15;;;;;;;6.60;5.85;;;23.00;99.90;;;;;;7274789;19;2004378;-76
2022/08/15 07:06:49;;;;;;;7.32;6.63;;;23.10;99.90;;;;;;7377068;19;20305;-76
2022/08/15 07:09:44;;;;;;;6.82;6.05;;;23.30;99.90;;;;;;7377715;19;20356;-76
2022/08/15 07:12:22;;;;;;;9.10;7.47;;;23.50;99.90;;;;;;7275921;19;2004190;-76
2022/08/15 07:14:58;;;;;;;6.95;6.10;;;23.60;99.90;;;;;;7273039;19;2004248;-76
2022/08/15 07:17:42;;;;;;;10.25;7.97;;;23.70;99.90;;;;;;7378176;19;20861;-76
2022/08/15 07:20:09;;;;;;;8.32;7.25;;;23.60;99.90;;;;;;7377593;19;20375;-76
2022/08/15 07:22:40;;;;;;;8.90;7.22;;;23.50;99.90;;;;;;7378059;19;20316;-76
2022/08/15 07:25:13;;;;;;;6.40;5.70;;;23.50;99.90;;;;;;7375056;19;20435;-76
2022/08/15 07:27:39;;;;;;;6.65;5.78;;;23.70;99.90;;;;;;7377015;19;20308;-76
2022/08/15 07:30:20;;;;;;;5.07;4.60;;;23.90;99.90;;;;;;7377983;19;20436;-76
2022/08/15 07:32:55;;;;;;;8.05;6.57;;;24.20;99.90;;;;;;7377869;19;20328;-75
2022/08/15 07:35:32;;;;;;;7.68;6.63;;;24.50;99.90;;;;;;7271932;19;2004577;-77
2022/08/15 07:38:06;;;;;;;6.93;5.20;;;24.60;99.90;;;;;;7376134;19;20763;-75
2022/08/15 07:40:36;;;;;;;7.45;5.80;;;24.70;99.90;;;;;;7378656;19;20392;-77
2022/08/15 07:43:05;;;;;;;6.72;5.75;;;25.00;99.90;;;;;;7376338;19;20348;-75
2022/08/15 07:45:37;;;;;;;5.72;5.15;;;25.10;99.90;;;;;;7373005;19;20341;-77
2022/08/15 07:48:20;;;;;;;7.03;6.07;;;25.30;99.90;;;;;;7377847;19;20760;-75
2022/08/15 07:51:02;;;;;;;6.18;5.57;;;25.40;99.90;;;;;;7275108;19;2004421;-76
2022/08/15 07:53:28;;;;;;;6.53;5.90;;;25.60;99.90;;;;;;7377218;19;20914;-76
2022/08/15 07:56:12;;;;;;;6.22;5.63;;;25.70;99.90;;;;;;7372414;19;20361;-77
2022/08/15 07:58:39;;;;;;;7.10;5.40;;;25.70;99.90;;;;;;7376602;19;20324;-77
2022/08/15 08:01:22;;;;;;;8.90;6.57;;;25.70;99.90;;;;;;7376628;19;20340;-75
2022/08/15 08:03:55;;;;;;;6.57;5.77;;;25.50;99.90;;;;;;7376331;19;20921;-75
2022/08/15 08:06:33;;;;;;;6.32;5.72;;;25.70;99.90;;;;;;7272585;19;2004540;-76
2022/08/15 08:09:22;;;;;;;6.35;5.75;;;25.90;99.90;;;;;;7376932;19;20345;-75
2022/08/15 08:11:56;;;;;;;7.15;5.63;;;26.00;99.90;;;;;;7280855;19;2004712;-75
2022/08/15 08:14:40;;;;;;;6.68;5.13;;;26.00;99.90;;;;;;7381658;19;20356;-77
2022/08/15 08:17:10;;;;;;;6.55;5.93;;;26.10;99.90;;;;;;7382165;19;20349;-75
2022/08/15 08:19:55;;;;;;;6.28;5.28;;;26.20;99.90;;;;;;7385946;19;20335;-77
2022/08/15 08:22:38;;;;;;;7.60;5.30;;;26.10;99.90;;;;;;7280100;19;2004253;-74
2022/08/15 08:25:13;;;;;;;5.40;4.90;;;26.30;99.90;;;;;;7380454;19;20341;-76
2022/08/15 08:27:52;;;;;;;5.35;4.85;;;26.30;99.90;;;;;;7382275;19;20324;-76
2022/08/15 08:30:24;;;;;;;5.95;5.35;;;26.40;99.90;;;;;;7382993;19;20325;-77
2022/08/15 08:32:59;;;;;;;7.72;5.80;;;26.50;99.90;;;;;;7281464;19;2004391;-75
2022/08/15 08:35:37;;;;;;;6.05;4.93;;;26.50;99.90;;;;;;7378859;19;20401;-77
2022/08/15 08:38:20;;;;;;;5.75;5.03;;;26.60;99.90;;;;;;7382975;19;20344;-76
2022/08/15 08:41:35;;;;;;;6.13;5.35;;;26.80;99.90;;;;;;7383034;19;20312;-77
2022/08/15 08:44:09;;;;;;;7.30;5.90;;;26.80;99.90;;;;;;7176578;19;2004388;-76
2022/08/15 08:46:48;;;;;;;6.10;5.50;;;27.10;99.90;;;;;;7380688;19;21171;-76
2022/08/15 08:49:25;;;;;;;7.13;5.30;;;27.10;99.90;;;;;;7385958;19;20312;-77
2022/08/15 08:52:05;;;;;;;5.97;5.28;;;27.40;99.90;;;;;;7278908;19;2004403;-77
2022/08/15 08:54:52;;;;;;;6.00;4.80;;;27.70;99.90;;;;;;7379211;19;20364;-77
2022/08/15 08:57:20;;;;;;;6.90;5.47;;;27.90;99.90;;;;;;7380136;19;20336;-77
2022/08/15 09:00:00;;;;;;;5.35;4.72;;;28.20;99.90;;;;;;7381375;19;20860;-77
2022/08/15 09:02:38;;;;;;;6.10;5.43;;;28.40;99.90;;;;;;7278313;19;2004546;-77
2022/08/15 09:05:14;;;;;;;8.20;6.35;;;28.50;99.90;;;;;;7377048;19;21211;-76
2022/08/15 09:07:43;;;;;;;6.10;5.40;;;28.30;99.90;;;;;;7381128;19;20345;-78
2022/08/15 09:10:09;;;;;;;6.18;5.57;;;28.40;99.90;;;;;;7382724;19;20400;-76
2022/08/15 09:15:30;;;;;;;8.07;4.50;;;28.50;99.90;;;;;;7276210;19;2004330;-75
2022/08/15 09:18:02;;;;;;;6.03;5.13;;;28.70;99.90;;;;;;7381204;19;20364;-78
2022/08/15 09:20:31;;;;;;;6.03;4.82;;;28.90;99.90;;;;;;7379394;19;20320;-76
2022/08/15 09:22:56;;;;;;;5.97;4.63;;;29.10;99.90;;;;;;7380223;19;20369;-78
2022/08/15 09:25:23;;;;;;;5.77;4.20;;;29.10;99.90;;;;;;7377857;19;20321;-78
2022/08/15 09:28:05;;;;;;;5.03;4.63;;;29.40;99.90;;;;;;7382243;19;20345;-79
2022/08/15 09:30:30;;;;;;;4.97;4.55;;;29.50;99.90;;;;;;7276927;19;2004351;-78
2022/08/15 09:33:47;;;;;;;5.10;4.60;;;29.80;99.90;;;;;;7381665;19;20347;-79
2022/08/15 09:36:23;;;;;;;4.97;4.40;;;29.80;99.90;;;;;;7273490;19;2004388;-78
2022/08/15 09:39:31;;;;;;;6.45;4.75;;;30.00;99.90;;;;;;7381100;19;20353;-78
2022/08/15 09:42:19;;;;;;;4.93;4.47;;;29.80;99.90;;;;;;7176345;19;2005834;-78
2022/08/15 09:45:09;;;;;;;5.38;4.88;;;29.50;99.90;;;;;;7379439;19;20324;-78
2022/08/15 09:47:49;;;;;;;4.82;4.43;;;29.40;99.90;;;;;;7277193;19;2004569;-77
2022/08/15 09:50:40;;;;;;;4.60;4.00;;;29.40;99.90;;;;;;7381691;19;20392;-76
2022/08/15 09:53:06;;;;;;;5.97;4.25;;;29.40;99.90;;;;;;7277139;19;2004578;-79
2022/08/15 09:55:44;;;;;;;4.65;4.20;;;29.70;99.90;;;;;;7376715;19;20367;-79
2022/08/15 09:58:26;;;;;;;4.30;4.00;;;29.90;99.90;;;;;;7380568;19;20323;-78
2022/08/15 10:01:00;;;;;;;4.30;3.67;;;30.00;99.90;;;;;;7275623;19;2004487;-79
2022/08/15 10:03:43;;;;;;;6.50;4.03;;;30.20;99.90;;;;;;7381317;19;20888;-77
2022/08/15 10:06:35;;;;;;;5.80;4.07;;;30.20;99.90;;;;;;7373468;19;20905;-77
2022/08/15 10:09:13;;;;;;;4.13;3.72;;;30.10;99.90;;;;;;7276960;19;2004687;-78
2022/08/15 10:11:41;;;;;;;4.05;3.75;;;30.00;99.90;;;;;;7379854;19;20357;-78
2022/08/15 10:14:08;;;;;;;4.93;3.58;;;30.30;99.90;;;;;;7381045;19;20340;-76
2022/08/15 10:16:36;;;;;;;6.15;3.85;;;30.20;99.90;;;;;;7378198;19;20361;-78
2022/08/15 10:19:25;;;;;;;6.18;4.53;;;30.30;99.90;;;;;;7380489;19;20365;-79
2022/08/15 10:21:51;;;;;;;5.72;4.25;;;29.80;99.90;;;;;;7275611;19;2004562;-78
2022/08/15 10:24:32;;;;;;;4.63;4.17;;;30.20;99.90;;;;;;7379874;19;20320;-77
2022/08/15 10:27:09;;;;;;;5.90;4.28;;;30.80;99.90;;;;;;7276273;19;2004609;-78
2022/08/15 10:29:47;;;;;;;4.50;4.10;;;31.50;99.90;;;;;;7380504;19;20364;-79
2022/08/15 10:32:30;;;;;;;6.40;4.10;;;31.90;99.90;;;;;;7377340;19;20392;-79
2022/08/15 10:35:05;;;;;;;4.50;4.10;;;32.10;99.90;;;;;;7273829;19;2004464;-78
2022/08/15 10:37:34;;;;;;;5.80;4.22;;;31.60;99.90;;;;;;7376062;19;20354;-79
2022/08/15 10:40:31;;;;;;;4.40;4.00;;;31.10;99.90;;;;;;7378420;19;20429;-79
2022/08/15 10:43:20;;;;;;;4.40;4.00;;;30.90;99.90;;;;;;7276925;19;2004366;-78
2022/08/15 10:45:52;;;;;;;5.57;4.53;;;30.70;99.90;;;;;;7375851;19;20344;-78
2022/08/15 10:48:49;;;;;;;4.47;4.07;;;30.50;99.90;;;;;;7378307;19;20321;-79
2022/08/15 10:51:42;;;;;;;4.65;4.03;;;30.70;99.90;;;;;;7274478;19;2004516;-77
2022/08/15 10:54:11;;;;;;;4.95;4.45;;;31.00;99.90;;;;;;7277882;19;2004407;-79
2022/08/15 10:56:38;;;;;;;4.88;4.38;;;31.20;99.90;;;;;;7374512;19;20336;-80
2022/08/15 10:59:16;;;;;;;4.78;4.30;;;31.30;99.90;;;;;;7380487;19;20352;-79
2022/08/15 11:01:43;;;;;;;4.07;3.67;;;31.40;99.90;;;;;;7384606;19;20321;-78
2022/08/15 11:04:25;;;;;;;4.75;4.25;;;31.40;99.90;;;;;;7379478;19;20361;-78
2022/08/15 11:06:51;;;;;;;5.60;4.38;;;31.40;99.90;;;;;;7274069;19;2004553;-79
2022/08/15 11:09:18;;;;;;;4.63;4.23;;;31.50;99.90;;;;;;7378698;19;20309;-77
2022/08/15 11:12:05;;;;;;;4.90;3.87;;;31.50;99.90;;;;;;7378048;19;20333;-79
2022/08/15 11:14:38;;;;;;;4.82;4.38;;;31.50;99.90;;;;;;7274424;19;2005086;-79
2022/08/15 11:17:05;;;;;;;4.45;4.05;;;31.10;99.90;;;;;;7377211;19;20353;-79
2022/08/15 11:19:33;;;;;;;5.70;4.40;;;31.00;99.90;;;;;;7384029;19;20389;-78
2022/08/15 11:22:01;;;;;;;6.20;4.72;;;31.00;99.90;;;;;;7378246;19;20348;-79
2022/08/15 11:24:31;;;;;;;4.93;4.40;;;30.70;99.90;;;;;;7379661;19;20343;-79
2022/08/15 11:27:13;;;;;;;6.05;4.60;;;31.00;99.90;;;;;;7375050;19;20344;-78
2022/08/15 11:29:39;;;;;;;7.25;5.03;;;31.20;99.90;;;;;;7377895;19;20313;-78
2022/08/15 11:32:05;;;;;;;6.60;4.70;;;31.30;99.90;;;;;;7380328;19;20864;-79
2022/08/15 11:34:41;;;;;;;5.45;4.32;;;31.30;99.90;;;;;;7378178;19;20321;-79
2022/08/15 11:37:25;;;;;;;8.27;4.70;;;31.40;99.90;;;;;;7377171;19;20344;-79
2022/08/15 11:39:52;;;;;;;5.45;4.43;;;31.30;99.90;;;;;;7274129;19;2019389;-79
2022/08/15 11:42:18;;;;;;;4.60;4.20;;;31.30;99.90;;;;;;7378674;19;20428;-79
2022/08/15 11:44:59;;;;;;;4.20;3.80;;;31.50;99.90;;;;;;7375146;19;20332;-79
2022/08/15 11:47:26;;;;;;;4.70;4.28;;;31.80;99.90;;;;;;7274963;19;2004633;-79
2022/08/15 11:49:54;;;;;;;4.57;4.18;;;32.10;99.60;;;;;;7378918;19;20357;-78
2022/08/15 11:52:25;;;;;;;8.57;5.18;;;32.60;99.10;;;;;;7380589;19;20854;-79
2022/08/15 11:55:11;;;;;;;5.80;4.63;;;33.10;98.20;;;;;;7379255;19;20930;-78
2022/08/15 11:58:05;;;;;;;4.50;4.10;;;33.50;95.50;;;;;;7367086;19;20369;-79
2022/08/15 12:00:37;;;;;;;4.68;4.00;;;33.20;96.30;;;;;;7272486;19;2004374;-79
2022/08/15 12:03:22;;;;;;;4.43;3.90;;;33.70;95.10;;;;;;7387944;19;20360;-79
2022/08/15 12:05:49;;;;;;;9.02;3.95;;;34.10;94.30;;;;;;7386286;19;20341;-79
2022/08/15 12:08:25;;;;;;;5.05;4.15;;;34.40;93.30;;;;;;7383868;19;20309;-79
2022/08/15 12:10:51;;;;;;;4.28;3.88;;;34.00;92.20;;;;;;7282300;19;2004521;-78
2022/08/15 12:13:16;;;;;;;5.97;4.30;;;33.50;92.90;;;;;;7381888;19;20334;-79
2022/08/15 12:15:43;;;;;;;4.35;3.75;;;33.70;93.40;;;;;;7384807;19;21239;-79
2022/08/15 12:18:17;;;;;;;5.55;4.45;;;34.20;92.80;;;;;;7385687;19;20356;-77
2022/08/15 12:21:04;;;;;;;7.22;3.88;;;35.00;91.90;;;;;;7386164;19;20335;-78
2022/08/15 12:24:00;;;;;;;6.63;4.50;;;35.10;90.50;;;;;;7280406;19;2004501;-77
2022/08/15 12:26:45;;;;;;;4.45;4.03;;;35.20;90.60;;;;;;7172583;19;2004872;-79
2022/08/15 12:29:11;;;;;;;4.95;3.95;;;35.40;85.70;;;;;;7381991;19;20316;-77
2022/08/15 12:31:38;;;;;;;3.67;3.33;;;35.50;83.60;;;;;;7378043;19;20362;-79
2022/08/15 12:34:15;;;;;;;4.35;3.95;;;35.10;85.70;;;;;;7380490;19;20348;-78
2022/08/15 12:36:42;;;;;;;4.57;4.07;;;34.60;87.00;;;;;;7376051;19;20340;-78
2022/08/15 12:39:08;;;;;;;4.80;3.97;;;34.20;82.70;;;;;;7374461;19;20343;-78
2022/08/15 12:41:34;;;;;;;4.13;3.72;;;33.80;83.90;;;;;;7376075;19;20845;-77
2022/08/15 12:44:00;;;;;;;3.93;3.63;;;33.50;85.30;;;;;;7375487;19;20341;-79
2022/08/15 12:46:25;;;;;;;4.07;3.67;;;34.10;87.50;;;;;;7373152;19;20837;-78
2022/08/15 12:48:51;;;;;;;6.23;3.23;;;34.80;85.20;;;;;;7378189;19;20344;-78
2022/08/15 12:51:16;;;;;;;3.93;3.63;;;34.90;82.60;;;;;;7381667;19;20326;-79
2022/08/15 12:53:42;;;;;;;3.93;3.50;;;34.70;81.10;;;;;;7383166;19;20813;-79
2022/08/15 12:56:08;;;;;;;4.68;3.67;;;34.70;83.10;;;;;;7372026;19;20356;-79
2022/08/15 12:58:37;;;;;;;4.30;3.90;;;34.40;80.80;;;;;;7393318;19;20341;-77
2022/08/15 13:01:07;;;;;;;3.92;3.63;;;33.70;82.00;;;;;;7390618;19;20945;-77
2022/08/15 13:03:33;;;;;;;4.10;3.70;;;33.50;84.00;;;;;;7381779;19;20312;-78
2022/08/15 13:06:01;;;;;;;4.40;3.83;;;34.00;87.20;;;;;;7379939;19;20383;-77
2022/08/15 13:08:27;;;;;;;4.10;3.67;;;34.20;80.50;;;;;;7380280;19;20344;-77
2022/08/15 13:10:53;;;;;;;3.80;3.40;;;34.90;82.90;;;;;;7383068;19;20364;-79
2022/08/15 13:13:19;;;;;;;3.72;3.35;;;35.20;80.50;;;;;;7384174;19;20338;-78
2022/08/15 13:15:45;;;;;;;4.57;3.63;;;35.30;80.70;;;;;;7384730;19;20316;-76
2022/08/15 13:18:15;;;;;;;4.20;3.80;;;35.90;78.90;;;;;;7390584;19;20327;-79
2022/08/15 13:23:37;;;;;;;4.68;3.58;;;36.40;77.10;;;;;;7285554;19;2004281;-79